sensor_id;sensor_type;location;lat;lon;timestamp;P1;durP1;ratioP1;P2;durP2;ratioP2
70457;SDS011;57919;56.194;95.716;2022-09-03T00:05:02;17.63;;;9.18;;
70457;SDS011;57919;56.194;95.716;2022-09-03T00:15:07;24.90;;;17.73;;
70457;SDS011;57919;56.194;95.716;2022-09-03T00:25:14;16.73;;;10.47;;
70457;SDS011;57919;56.194;95.716;2022-09-03T00:35:25;16.52;;;7.47;;
70457;SDS011;57919;56.194;95.716;2022-09-03T00:55:48;11.98;;;4.75;;
70457;SDS011;57919;56.194;95.716;2022-09-03T01:06:08;8.90;;;4.60;;
70457;SDS011;57919;56.194;95.716;2022-09-03T01:57:57;7.97;;;3.80;;
70457;SDS011;57919;56.194;95.716;2022-09-03T02:08:09;6.97;;;3.30;;
70457;SDS011;57919;56.194;95.716;2022-09-03T02:18:16;8.20;;;4.28;;
70457;SDS011;57919;56.194;95.716;2022-09-03T02:28:21;10.13;;;4.20;;
70457;SDS011;57919;56.194;95.716;2022-09-03T02:38:24;8.30;;;4.15;;
70457;SDS011;57919;56.194;95.716;2022-09-03T02:48:27;7.93;;;3.70;;
70457;SDS011;57919;56.194;95.716;2022-09-03T02:58:29;8.33;;;3.43;;
70457;SDS011;57919;56.194;95.716;2022-09-03T03:08:31;8.88;;;4.05;;
70457;SDS011;57919;56.194;95.716;2022-09-03T03:18:35;8.80;;;3.90;;
70457;SDS011;57919;56.194;95.716;2022-09-03T03:28:37;16.05;;;4.90;;
70457;SDS011;57919;56.194;95.716;2022-09-03T03:38:39;10.23;;;5.10;;
70457;SDS011;57919;56.194;95.716;2022-09-03T03:48:46;9.67;;;4.40;;
70457;SDS011;57919;56.194;95.716;2022-09-03T03:58:49;6.70;;;3.47;;
70457;SDS011;57919;56.194;95.716;2022-09-03T04:08:51;8.30;;;4.40;;
70457;SDS011;57919;56.194;95.716;2022-09-03T04:18:54;9.73;;;4.80;;
70457;SDS011;57919;56.194;95.716;2022-09-03T04:29:01;14.43;;;6.10;;
70457;SDS011;57919;56.194;95.716;2022-09-03T04:39:05;21.37;;;5.40;;
70457;SDS011;57919;56.194;95.716;2022-09-03T04:49:07;10.50;;;5.60;;
70457;SDS011;57919;56.194;95.716;2022-09-03T04:59:09;9.93;;;4.50;;
70457;SDS011;57919;56.194;95.716;2022-09-03T05:09:11;8.50;;;4.40;;
70457;SDS011;57919;56.194;95.716;2022-09-03T05:19:14;6.27;;;2.77;;
70457;SDS011;57919;56.194;95.716;2022-09-03T05:29:16;7.60;;;3.30;;
70457;SDS011;57919;56.194;95.716;2022-09-03T05:39:20;7.72;;;3.58;;
70457;SDS011;57919;56.194;95.716;2022-09-03T05:49:22;6.47;;;3.20;;
70457;SDS011;57919;56.194;95.716;2022-09-03T05:59:25;6.00;;;2.60;;
70457;SDS011;57919;56.194;95.716;2022-09-03T06:09:27;5.30;;;2.23;;
70457;SDS011;57919;56.194;95.716;2022-09-03T06:19:29;5.20;;;2.43;;
70457;SDS011;57919;56.194;95.716;2022-09-03T06:29:31;5.05;;;2.10;;
70457;SDS011;57919;56.194;95.716;2022-09-03T06:39:34;5.63;;;1.93;;
70457;SDS011;57919;56.194;95.716;2022-09-03T06:49:36;4.80;;;1.90;;
70457;SDS011;57919;56.194;95.716;2022-09-03T06:59:38;4.33;;;1.57;;
70457;SDS011;57919;56.194;95.716;2022-09-03T07:09:40;4.50;;;1.90;;
70457;SDS011;57919;56.194;95.716;2022-09-03T07:19:43;5.68;;;2.03;;
70457;SDS011;57919;56.194;95.716;2022-09-03T07:29:44;4.67;;;2.00;;
70457;SDS011;57919;56.194;95.716;2022-09-03T07:39:46;8.60;;;3.10;;
70457;SDS011;57919;56.194;95.716;2022-09-03T07:49:48;4.80;;;1.90;;
70457;SDS011;57919;56.194;95.716;2022-09-03T07:59:50;5.33;;;1.60;;
70457;SDS011;57919;56.194;95.716;2022-09-03T08:09:52;10.90;;;6.53;;
70457;SDS011;57919;56.194;95.716;2022-09-03T08:19:54;9.17;;;5.43;;
70457;SDS011;57919;56.194;95.716;2022-09-03T08:29:57;7.87;;;3.03;;
70457;SDS011;57919;56.194;95.716;2022-09-03T08:40:00;7.93;;;4.13;;
70457;SDS011;57919;56.194;95.716;2022-09-03T09:00:16;5.90;;;2.85;;
70457;SDS011;57919;56.194;95.716;2022-09-03T09:31:09;7.37;;;3.23;;
70457;SDS011;57919;56.194;95.716;2022-09-03T09:41:16;7.40;;;2.67;;
70457;SDS011;57919;56.194;95.716;2022-09-03T09:51:25;6.68;;;3.08;;
70457;SDS011;57919;56.194;95.716;2022-09-03T10:01:32;8.93;;;3.10;;
70457;SDS011;57919;56.194;95.716;2022-09-03T10:11:39;12.37;;;3.10;;
70457;SDS011;57919;56.194;95.716;2022-09-03T10:21:47;9.10;;;3.80;;
70457;SDS011;57919;56.194;95.716;2022-09-03T11:23:50;15.20;;;6.17;;
70457;SDS011;57919;56.194;95.716;2022-09-03T11:34:15;30.92;;;14.30;;
70457;SDS011;57919;56.194;95.716;2022-09-03T11:44:35;38.40;;;19.13;;
70457;SDS011;57919;56.194;95.716;2022-09-03T11:54:43;26.00;;;15.83;;
70457;SDS011;57919;56.194;95.716;2022-09-03T12:04:51;30.02;;;17.02;;
70457;SDS011;57919;56.194;95.716;2022-09-03T12:15:16;50.37;;;25.40;;
70457;SDS011;57919;56.194;95.716;2022-09-03T12:25:43;55.45;;;25.33;;
70457;SDS011;57919;56.194;95.716;2022-09-03T12:35:57;42.73;;;25.00;;
70457;SDS011;57919;56.194;95.716;2022-09-03T12:46:00;39.43;;;19.07;;
70457;SDS011;57919;56.194;95.716;2022-09-03T12:56:04;53.42;;;29.30;;
70457;SDS011;57919;56.194;95.716;2022-09-03T13:06:11;80.70;;;45.97;;
70457;SDS011;57919;56.194;95.716;2022-09-03T13:27:11;79.30;;;41.37;;
70457;SDS011;57919;56.194;95.716;2022-09-03T13:37:43;93.07;;;50.03;;
70457;SDS011;57919;56.194;95.716;2022-09-03T13:47:51;125.10;;;67.28;;
70457;SDS011;57919;56.194;95.716;2022-09-03T13:58:28;279.70;;;114.50;;
70457;SDS011;57919;56.194;95.716;2022-09-03T14:29:48;240.30;;;106.97;;
70457;SDS011;57919;56.194;95.716;2022-09-03T14:40:15;174.10;;;89.63;;
70457;SDS011;57919;56.194;95.716;2022-09-03T14:50:44;111.77;;;52.27;;
70457;SDS011;57919;56.194;95.716;2022-09-03T15:01:02;107.63;;;53.90;;
70457;SDS011;57919;56.194;95.716;2022-09-03T15:11:14;95.00;;;50.05;;
70457;SDS011;57919;56.194;95.716;2022-09-03T15:21:26;109.20;;;54.93;;
70457;SDS011;57919;56.194;95.716;2022-09-03T15:31:52;126.53;;;60.33;;
70457;SDS011;57919;56.194;95.716;2022-09-03T15:42:26;122.38;;;61.55;;
70457;SDS011;57919;56.194;95.716;2022-09-03T15:52:31;152.63;;;76.20;;
70457;SDS011;57919;56.194;95.716;2022-09-03T16:03:05;113.13;;;57.30;;
70457;SDS011;57919;56.194;95.716;2022-09-03T16:33:42;91.28;;;46.55;;
70457;SDS011;57919;56.194;95.716;2022-09-03T16:44:18;74.17;;;38.57;;
70457;SDS011;57919;56.194;95.716;2022-09-03T17:26:17;203.60;;;121.20;;
70457;SDS011;57919;56.194;95.716;2022-09-03T17:36:25;192.47;;;109.33;;
70457;SDS011;57919;56.194;95.716;2022-09-03T18:06:52;102.07;;;64.37;;
70457;SDS011;57919;56.194;95.716;2022-09-03T18:17:04;184.27;;;85.63;;
70457;SDS011;57919;56.194;95.716;2022-09-03T18:37:37;238.40;;;96.03;;
70457;SDS011;57919;56.194;95.716;2022-09-03T19:08:52;17.67;;;7.20;;
70457;SDS011;57919;56.194;95.716;2022-09-03T19:19:27;12.90;;;5.30;;
70457;SDS011;57919;56.194;95.716;2022-09-03T19:40:49;86.83;;;5.83;;
70457;SDS011;57919;56.194;95.716;2022-09-03T19:51:31;75.93;;;4.40;;
70457;SDS011;57919;56.194;95.716;2022-09-03T20:01:58;26.50;;;3.73;;
70457;SDS011;57919;56.194;95.716;2022-09-03T20:12:20;22.40;;;4.13;;
70457;SDS011;57919;56.194;95.716;2022-09-03T20:22:30;20.10;;;4.45;;
70457;SDS011;57919;56.194;95.716;2022-09-03T21:35:23;15.80;;;3.17;;
70457;SDS011;57919;56.194;95.716;2022-09-03T22:06:04;10.53;;;3.77;;
70457;SDS011;57919;56.194;95.716;2022-09-03T22:16:15;8.70;;;3.08;;
70457;SDS011;57919;56.194;95.716;2022-09-03T22:26:31;15.83;;;3.47;;
70457;SDS011;57919;56.194;95.716;2022-09-03T22:37:01;18.77;;;3.27;;
70457;SDS011;57919;56.194;95.716;2022-09-03T22:57:13;61.77;;;4.10;;
70457;SDS011;57919;56.194;95.716;2022-09-03T23:17:50;35.03;;;3.85;;
70457;SDS011;57919;56.194;95.716;2022-09-03T23:28:07;44.17;;;4.07;;
